sensor_id;sensor_type;location;lat;lon;timestamp;temperature;humidity
50947;DHT22;36955;47.416;7.716;2022-12-07T00:00:08;2.20;99.90
50947;DHT22;36955;47.416;7.716;2022-12-07T00:02:34;2.10;99.90
50947;DHT22;36955;47.416;7.716;2022-12-07T00:05:00;2.10;99.90
50947;DHT22;36955;47.416;7.716;2022-12-07T00:07:26;2.10;99.90
50947;DHT22;36955;47.416;7.716;2022-12-07T00:09:52;2.10;99.90
50947;DHT22;36955;47.416;7.716;2022-12-07T00:12:18;2.10;99.90
50947;DHT22;36955;47.416;7.716;2022-12-07T00:14:44;2.20;99.90
50947;DHT22;36955;47.416;7.716;2022-12-07T00:17:10;2.10;99.90
50947;DHT22;36955;47.416;7.716;2022-12-07T00:19:36;2.10;99.90
50947;DHT22;36955;47.416;7.716;2022-12-07T00:22:02;2.10;99.90
50947;DHT22;36955;47.416;7.716;2022-12-07T00:24:28;2.10;99.90
50947;DHT22;36955;47.416;7.716;2022-12-07T00:26:55;2.10;99.90
50947;DHT22;36955;47.416;7.716;2022-12-07T00:29:21;2.00;99.90
50947;DHT22;36955;47.416;7.716;2022-12-07T00:31:47;2.00;99.90
50947;DHT22;36955;47.416;7.716;2022-12-07T00:34:16;2.00;99.90
50947;DHT22;36955;47.416;7.716;2022-12-07T00:36:42;2.00;99.90
50947;DHT22;36955;47.416;7.716;2022-12-07T00:39:09;2.00;99.90
50947;DHT22;36955;47.416;7.716;2022-12-07T00:41:35;2.00;99.90
50947;DHT22;36955;47.416;7.716;2022-12-07T00:44:01;2.00;99.90
50947;DHT22;36955;47.416;7.716;2022-12-07T00:46:27;2.00;99.90
50947;DHT22;36955;47.416;7.716;2022-12-07T00:48:53;2.00;99.90
50947;DHT22;36955;47.416;7.716;2022-12-07T00:51:22;2.00;99.90
50947;DHT22;36955;47.416;7.716;2022-12-07T00:53:48;1.90;99.90
50947;DHT22;36955;47.416;7.716;2022-12-07T00:56:23;1.90;99.90
50947;DHT22;36955;47.416;7.716;2022-12-07T00:59:12;1.90;99.90
50947;DHT22;36955;47.416;7.716;2022-12-07T01:01:38;1.90;99.90
50947;DHT22;36955;47.416;7.716;2022-12-07T01:04:04;1.90;99.90
50947;DHT22;36955;47.416;7.716;2022-12-07T01:06:31;1.90;99.90
50947;DHT22;36955;47.416;7.716;2022-12-07T01:08:58;1.80;99.90
50947;DHT22;36955;47.416;7.716;2022-12-07T01:11:27;1.80;99.90
50947;DHT22;36955;47.416;7.716;2022-12-07T01:13:55;1.70;99.90
50947;DHT22;36955;47.416;7.716;2022-12-07T01:16:24;1.70;99.90
50947;DHT22;36955;47.416;7.716;2022-12-07T01:18:51;1.70;99.90
50947;DHT22;36955;47.416;7.716;2022-12-07T01:21:21;1.70;99.90
50947;DHT22;36955;47.416;7.716;2022-12-07T01:23:48;1.70;99.90
50947;DHT22;36955;47.416;7.716;2022-12-07T01:26:17;1.70;99.90
50947;DHT22;36955;47.416;7.716;2022-12-07T01:28:44;1.70;99.90
50947;DHT22;36955;47.416;7.716;2022-12-07T01:31:13;1.70;99.90
50947;DHT22;36955;47.416;7.716;2022-12-07T01:33:39;1.70;99.90
50947;DHT22;36955;47.416;7.716;2022-12-07T01:36:14;1.70;99.90
50947;DHT22;36955;47.416;7.716;2022-12-07T01:38:41;1.70;99.90
50947;DHT22;36955;47.416;7.716;2022-12-07T01:41:08;1.70;99.90
50947;DHT22;36955;47.416;7.716;2022-12-07T01:43:34;1.70;99.90
50947;DHT22;36955;47.416;7.716;2022-12-07T01:46:02;1.80;99.90
50947;DHT22;36955;47.416;7.716;2022-12-07T01:48:32;1.80;99.90
50947;DHT22;36955;47.416;7.716;2022-12-07T01:51:04;1.80;99.90
50947;DHT22;36955;47.416;7.716;2022-12-07T01:53:33;1.90;99.90
50947;DHT22;36955;47.416;7.716;2022-12-07T01:56:01;1.90;99.90
50947;DHT22;36955;47.416;7.716;2022-12-07T01:58:28;1.90;99.90
50947;DHT22;36955;47.416;7.716;2022-12-07T02:00:54;1.90;99.90
50947;DHT22;36955;47.416;7.716;2022-12-07T02:03:42;1.90;99.90
50947;DHT22;36955;47.416;7.716;2022-12-07T02:06:10;1.90;99.90
50947;DHT22;36955;47.416;7.716;2022-12-07T02:08:37;1.90;99.90
50947;DHT22;36955;47.416;7.716;2022-12-07T02:11:04;1.90;99.90
50947;DHT22;36955;47.416;7.716;2022-12-07T02:13:33;1.80;99.90
50947;DHT22;36955;47.416;7.716;2022-12-07T02:16:13;1.90;99.90
50947;DHT22;36955;47.416;7.716;2022-12-07T02:21:51;1.80;99.90
50947;DHT22;36955;47.416;7.716;2022-12-07T02:27:38;1.90;99.90
50947;DHT22;36955;47.416;7.716;2022-12-07T02:35:24;1.90;99.90
50947;DHT22;36955;47.416;7.716;2022-12-07T02:40:40;1.80;99.90
50947;DHT22;36955;47.416;7.716;2022-12-07T02:43:24;1.80;99.90
50947;DHT22;36955;47.416;7.716;2022-12-07T02:45:56;1.80;99.90
50947;DHT22;36955;47.416;7.716;2022-12-07T02:48:25;1.80;99.90
50947;DHT22;36955;47.416;7.716;2022-12-07T02:50:53;1.80;99.90
50947;DHT22;36955;47.416;7.716;2022-12-07T02:53:51;1.80;99.90
50947;DHT22;36955;47.416;7.716;2022-12-07T02:56:36;1.90;99.90
50947;DHT22;36955;47.416;7.716;2022-12-07T03:05:09;1.70;99.90
50947;DHT22;36955;47.416;7.716;2022-12-07T03:13:28;1.60;99.90
50947;DHT22;36955;47.416;7.716;2022-12-07T03:16:03;1.60;99.90
50947;DHT22;36955;47.416;7.716;2022-12-07T03:18:40;1.60;99.90
50947;DHT22;36955;47.416;7.716;2022-12-07T03:21:13;1.50;99.90
50947;DHT22;36955;47.416;7.716;2022-12-07T03:23:42;1.50;99.90
50947;DHT22;36955;47.416;7.716;2022-12-07T03:26:12;1.50;99.90
50947;DHT22;36955;47.416;7.716;2022-12-07T03:28:43;1.40;99.90
50947;DHT22;36955;47.416;7.716;2022-12-07T03:31:15;1.40;99.90
50947;DHT22;36955;47.416;7.716;2022-12-07T03:36:44;1.40;99.90
50947;DHT22;36955;47.416;7.716;2022-12-07T03:42:04;1.40;99.90
50947;DHT22;36955;47.416;7.716;2022-12-07T03:44:32;1.50;99.90
50947;DHT22;36955;47.416;7.716;2022-12-07T03:49:49;1.50;99.90
50947;DHT22;36955;47.416;7.716;2022-12-07T03:57:24;1.60;99.90
50947;DHT22;36955;47.416;7.716;2022-12-07T03:59:51;1.60;99.90
50947;DHT22;36955;47.416;7.716;2022-12-07T04:02:19;1.60;99.90
50947;DHT22;36955;47.416;7.716;2022-12-07T04:04:46;1.60;99.90
50947;DHT22;36955;47.416;7.716;2022-12-07T04:07:12;1.50;99.90
50947;DHT22;36955;47.416;7.716;2022-12-07T04:09:38;1.50;99.90
50947;DHT22;36955;47.416;7.716;2022-12-07T04:12:05;1.40;99.90
50947;DHT22;36955;47.416;7.716;2022-12-07T04:14:31;1.40;99.90
50947;DHT22;36955;47.416;7.716;2022-12-07T04:16:58;1.50;99.90
50947;DHT22;36955;47.416;7.716;2022-12-07T04:19:26;1.50;99.90
50947;DHT22;36955;47.416;7.716;2022-12-07T04:21:53;1.50;99.90
50947;DHT22;36955;47.416;7.716;2022-12-07T04:24:19;1.50;99.90
50947;DHT22;36955;47.416;7.716;2022-12-07T04:26:46;1.50;99.90
50947;DHT22;36955;47.416;7.716;2022-12-07T04:29:13;1.50;99.90
50947;DHT22;36955;47.416;7.716;2022-12-07T04:31:39;1.50;99.90
50947;DHT22;36955;47.416;7.716;2022-12-07T04:34:06;1.40;99.90
50947;DHT22;36955;47.416;7.716;2022-12-07T04:36:32;1.50;99.90
50947;DHT22;36955;47.416;7.716;2022-12-07T04:38:59;1.40;99.90
50947;DHT22;36955;47.416;7.716;2022-12-07T04:41:25;1.40;99.90
50947;DHT22;36955;47.416;7.716;2022-12-07T04:43:55;1.40;99.90
50947;DHT22;36955;47.416;7.716;2022-12-07T04:46:21;1.40;99.90
50947;DHT22;36955;47.416;7.716;2022-12-07T04:48:48;1.40;99.90
50947;DHT22;36955;47.416;7.716;2022-12-07T04:51:18;1.30;99.90
50947;DHT22;36955;47.416;7.716;2022-12-07T04:53:44;1.30;99.90
50947;DHT22;36955;47.416;7.716;2022-12-07T04:56:10;1.40;99.90
50947;DHT22;36955;47.416;7.716;2022-12-07T04:58:36;1.40;99.90
50947;DHT22;36955;47.416;7.716;2022-12-07T05:01:03;1.40;99.90
50947;DHT22;36955;47.416;7.716;2022-12-07T05:03:29;1.40;99.90
50947;DHT22;36955;47.416;7.716;2022-12-07T05:05:55;1.40;99.90
50947;DHT22;36955;47.416;7.716;2022-12-07T05:08:21;1.40;99.90
50947;DHT22;36955;47.416;7.716;2022-12-07T05:10:48;1.40;99.90
50947;DHT22;36955;47.416;7.716;2022-12-07T05:13:15;1.40;99.90
50947;DHT22;36955;47.416;7.716;2022-12-07T05:15:41;1.40;99.90
50947;DHT22;36955;47.416;7.716;2022-12-07T05:18:07;1.40;99.90
50947;DHT22;36955;47.416;7.716;2022-12-07T05:20:33;1.40;99.90
50947;DHT22;36955;47.416;7.716;2022-12-07T05:22:59;1.40;99.90
50947;DHT22;36955;47.416;7.716;2022-12-07T05:25:25;1.40;99.90
50947;DHT22;36955;47.416;7.716;2022-12-07T05:27:51;1.40;99.90
50947;DHT22;36955;47.416;7.716;2022-12-07T05:30:17;1.50;99.90
50947;DHT22;36955;47.416;7.716;2022-12-07T05:32:43;1.50;99.90
50947;DHT22;36955;47.416;7.716;2022-12-07T05:35:09;1.50;99.90
50947;DHT22;36955;47.416;7.716;2022-12-07T05:37:35;1.40;99.90
50947;DHT22;36955;47.416;7.716;2022-12-07T05:40:02;1.40;99.90
50947;DHT22;36955;47.416;7.716;2022-12-07T05:42:28;1.40;99.90
50947;DHT22;36955;47.416;7.716;2022-12-07T05:44:54;1.40;99.90
50947;DHT22;36955;47.416;7.716;2022-12-07T05:47:20;1.30;99.90
50947;DHT22;36955;47.416;7.716;2022-12-07T05:49:46;1.30;99.90
50947;DHT22;36955;47.416;7.716;2022-12-07T05:52:12;1.30;99.90
50947;DHT22;36955;47.416;7.716;2022-12-07T05:54:38;1.30;99.90
50947;DHT22;36955;47.416;7.716;2022-12-07T05:57:04;1.40;99.90
50947;DHT22;36955;47.416;7.716;2022-12-07T05:59:31;1.30;99.90
50947;DHT22;36955;47.416;7.716;2022-12-07T06:02:05;1.30;99.90
50947;DHT22;36955;47.416;7.716;2022-12-07T06:04:35;1.30;99.90
50947;DHT22;36955;47.416;7.716;2022-12-07T06:07:01;1.30;99.90
50947;DHT22;36955;47.416;7.716;2022-12-07T06:09:28;1.30;99.90
50947;DHT22;36955;47.416;7.716;2022-12-07T06:11:55;1.30;99.90
50947;DHT22;36955;47.416;7.716;2022-12-07T06:14:21;1.30;99.90
50947;DHT22;36955;47.416;7.716;2022-12-07T06:16:47;1.30;99.90
50947;DHT22;36955;47.416;7.716;2022-12-07T06:19:13;1.30;99.90
50947;DHT22;36955;47.416;7.716;2022-12-07T06:21:39;1.30;99.90
50947;DHT22;36955;47.416;7.716;2022-12-07T06:24:05;1.30;99.90
50947;DHT22;36955;47.416;7.716;2022-12-07T06:26:32;1.30;99.90
50947;DHT22;36955;47.416;7.716;2022-12-07T06:28:58;1.30;99.90
50947;DHT22;36955;47.416;7.716;2022-12-07T06:31:24;1.30;99.90
50947;DHT22;36955;47.416;7.716;2022-12-07T06:33:50;1.30;99.90
50947;DHT22;36955;47.416;7.716;2022-12-07T06:36:16;1.30;99.90
50947;DHT22;36955;47.416;7.716;2022-12-07T06:38:42;1.20;99.90
50947;DHT22;36955;47.416;7.716;2022-12-07T06:41:08;1.20;99.90
50947;DHT22;36955;47.416;7.716;2022-12-07T06:43:34;1.20;99.90
50947;DHT22;36955;47.416;7.716;2022-12-07T06:46:00;1.20;99.90
50947;DHT22;36955;47.416;7.716;2022-12-07T06:48:26;1.30;99.90
50947;DHT22;36955;47.416;7.716;2022-12-07T06:50:53;1.30;99.90
50947;DHT22;36955;47.416;7.716;2022-12-07T06:53:19;1.30;99.90
50947;DHT22;36955;47.416;7.716;2022-12-07T06:55:45;1.30;99.90
50947;DHT22;36955;47.416;7.716;2022-12-07T06:58:11;1.30;99.90
50947;DHT22;36955;47.416;7.716;2022-12-07T07:00:37;1.40;99.90
50947;DHT22;36955;47.416;7.716;2022-12-07T07:03:03;1.40;99.90
50947;DHT22;36955;47.416;7.716;2022-12-07T07:05:29;1.30;99.90
50947;DHT22;36955;47.416;7.716;2022-12-07T07:07:55;1.30;99.90
50947;DHT22;36955;47.416;7.716;2022-12-07T07:10:21;1.40;99.90
50947;DHT22;36955;47.416;7.716;2022-12-07T07:12:47;1.40;99.90
50947;DHT22;36955;47.416;7.716;2022-12-07T07:15:13;1.40;99.90
50947;DHT22;36955;47.416;7.716;2022-12-07T07:17:39;1.40;99.90
50947;DHT22;36955;47.416;7.716;2022-12-07T07:20:05;1.40;99.90
50947;DHT22;36955;47.416;7.716;2022-12-07T07:22:32;1.40;99.90
50947;DHT22;36955;47.416;7.716;2022-12-07T07:24:58;1.40;99.90
50947;DHT22;36955;47.416;7.716;2022-12-07T07:27:24;1.40;99.90
50947;DHT22;36955;47.416;7.716;2022-12-07T07:29:50;1.40;99.90
50947;DHT22;36955;47.416;7.716;2022-12-07T07:32:16;1.40;99.90
50947;DHT22;36955;47.416;7.716;2022-12-07T07:34:42;1.40;99.90
50947;DHT22;36955;47.416;7.716;2022-12-07T07:37:08;1.40;99.90
50947;DHT22;36955;47.416;7.716;2022-12-07T07:39:34;1.40;99.90
50947;DHT22;36955;47.416;7.716;2022-12-07T07:42:00;1.40;99.90
50947;DHT22;36955;47.416;7.716;2022-12-07T07:44:26;1.40;99.90
50947;DHT22;36955;47.416;7.716;2022-12-07T07:46:52;1.40;99.90
50947;DHT22;36955;47.416;7.716;2022-12-07T07:49:18;1.40;99.90
50947;DHT22;36955;47.416;7.716;2022-12-07T07:51:44;1.40;99.90
50947;DHT22;36955;47.416;7.716;2022-12-07T07:54:10;1.40;99.90
50947;DHT22;36955;47.416;7.716;2022-12-07T07:56:36;1.40;99.90
50947;DHT22;36955;47.416;7.716;2022-12-07T07:59:02;1.40;99.90
50947;DHT22;36955;47.416;7.716;2022-12-07T08:01:28;1.40;99.90
50947;DHT22;36955;47.416;7.716;2022-12-07T08:03:54;1.40;99.90
50947;DHT22;36955;47.416;7.716;2022-12-07T08:06:20;1.40;99.90
50947;DHT22;36955;47.416;7.716;2022-12-07T08:08:46;1.50;99.90
50947;DHT22;36955;47.416;7.716;2022-12-07T08:11:12;1.50;99.90
50947;DHT22;36955;47.416;7.716;2022-12-07T08:13:38;1.60;99.90
50947;DHT22;36955;47.416;7.716;2022-12-07T08:16:07;1.70;99.90
50947;DHT22;36955;47.416;7.716;2022-12-07T08:18:37;1.70;99.90
50947;DHT22;36955;47.416;7.716;2022-12-07T08:21:04;1.80;99.90
50947;DHT22;36955;47.416;7.716;2022-12-07T08:23:32;1.80;99.90
50947;DHT22;36955;47.416;7.716;2022-12-07T08:26:05;1.80;99.90
50947;DHT22;36955;47.416;7.716;2022-12-07T08:28:32;1.80;99.90
50947;DHT22;36955;47.416;7.716;2022-12-07T08:31:02;1.90;99.90
50947;DHT22;36955;47.416;7.716;2022-12-07T08:33:28;2.00;99.90
50947;DHT22;36955;47.416;7.716;2022-12-07T08:35:59;2.00;99.90
50947;DHT22;36955;47.416;7.716;2022-12-07T08:38:25;2.00;99.90
50947;DHT22;36955;47.416;7.716;2022-12-07T08:40:55;2.00;99.90
50947;DHT22;36955;47.416;7.716;2022-12-07T08:43:21;2.00;99.90
50947;DHT22;36955;47.416;7.716;2022-12-07T08:48:46;2.10;99.90
50947;DHT22;36955;47.416;7.716;2022-12-07T08:51:14;2.10;99.90
50947;DHT22;36955;47.416;7.716;2022-12-07T08:53:41;2.20;99.90
50947;DHT22;36955;47.416;7.716;2022-12-07T08:56:08;2.30;99.90
50947;DHT22;36955;47.416;7.716;2022-12-07T08:58:35;2.30;99.90
50947;DHT22;36955;47.416;7.716;2022-12-07T09:01:02;2.30;99.90
50947;DHT22;36955;47.416;7.716;2022-12-07T09:03:28;2.30;99.90
50947;DHT22;36955;47.416;7.716;2022-12-07T09:05:54;2.30;99.90
50947;DHT22;36955;47.416;7.716;2022-12-07T09:08:22;2.40;99.90
50947;DHT22;36955;47.416;7.716;2022-12-07T09:10:51;2.40;99.90
50947;DHT22;36955;47.416;7.716;2022-12-07T09:13:17;2.50;99.90
50947;DHT22;36955;47.416;7.716;2022-12-07T09:15:43;2.40;99.90
50947;DHT22;36955;47.416;7.716;2022-12-07T09:18:09;2.60;99.90
50947;DHT22;36955;47.416;7.716;2022-12-07T09:20:35;2.70;99.90
50947;DHT22;36955;47.416;7.716;2022-12-07T09:23:01;2.80;99.90
50947;DHT22;36955;47.416;7.716;2022-12-07T09:25:27;2.80;99.90
50947;DHT22;36955;47.416;7.716;2022-12-07T09:27:57;2.80;99.90
50947;DHT22;36955;47.416;7.716;2022-12-07T09:30:23;2.90;99.90
50947;DHT22;36955;47.416;7.716;2022-12-07T09:32:50;2.80;99.90
50947;DHT22;36955;47.416;7.716;2022-12-07T09:35:16;2.80;99.90
50947;DHT22;36955;47.416;7.716;2022-12-07T09:37:42;2.70;99.90
50947;DHT22;36955;47.416;7.716;2022-12-07T09:40:08;2.70;99.90
50947;DHT22;36955;47.416;7.716;2022-12-07T09:42:37;2.50;99.90
50947;DHT22;36955;47.416;7.716;2022-12-07T09:45:06;2.50;99.90
50947;DHT22;36955;47.416;7.716;2022-12-07T09:47:33;2.40;99.90
50947;DHT22;36955;47.416;7.716;2022-12-07T09:50:23;2.40;99.90
50947;DHT22;36955;47.416;7.716;2022-12-07T09:52:51;2.40;99.90
50947;DHT22;36955;47.416;7.716;2022-12-07T09:55:25;2.50;99.90
50947;DHT22;36955;47.416;7.716;2022-12-07T09:57:53;2.50;99.90
50947;DHT22;36955;47.416;7.716;2022-12-07T10:00:21;2.60;99.90
50947;DHT22;36955;47.416;7.716;2022-12-07T10:03:02;2.60;99.90
50947;DHT22;36955;47.416;7.716;2022-12-07T10:05:45;2.60;99.90
50947;DHT22;36955;47.416;7.716;2022-12-07T10:08:13;2.60;99.90
50947;DHT22;36955;47.416;7.716;2022-12-07T10:10:39;2.60;99.90
50947;DHT22;36955;47.416;7.716;2022-12-07T10:13:12;2.60;99.90
50947;DHT22;36955;47.416;7.716;2022-12-07T10:20:48;2.50;99.90
50947;DHT22;36955;47.416;7.716;2022-12-07T10:23:16;2.40;99.90
50947;DHT22;36955;47.416;7.716;2022-12-07T10:25:43;2.40;99.90
50947;DHT22;36955;47.416;7.716;2022-12-07T10:30:57;2.30;99.90
50947;DHT22;36955;47.416;7.716;2022-12-07T10:33:46;2.30;99.90
50947;DHT22;36955;47.416;7.716;2022-12-07T10:36:27;2.30;99.90
50947;DHT22;36955;47.416;7.716;2022-12-07T10:39:03;2.30;99.90
50947;DHT22;36955;47.416;7.716;2022-12-07T10:41:30;2.40;99.90
50947;DHT22;36955;47.416;7.716;2022-12-07T10:43:57;2.30;99.90
50947;DHT22;36955;47.416;7.716;2022-12-07T10:46:45;2.20;99.90
50947;DHT22;36955;47.416;7.716;2022-12-07T10:52:20;2.40;99.90
50947;DHT22;36955;47.416;7.716;2022-12-07T10:57:37;2.40;99.90
50947;DHT22;36955;47.416;7.716;2022-12-07T11:00:24;2.50;99.90
50947;DHT22;36955;47.416;7.716;2022-12-07T11:08:38;2.50;99.90
50947;DHT22;36955;47.416;7.716;2022-12-07T11:16:55;2.80;99.90
50947;DHT22;36955;47.416;7.716;2022-12-07T11:21:59;2.90;99.90
50947;DHT22;36955;47.416;7.716;2022-12-07T11:35:23;3.10;99.90
50947;DHT22;36955;47.416;7.716;2022-12-07T11:37:58;3.20;99.90
50947;DHT22;36955;47.416;7.716;2022-12-07T11:40:35;3.20;99.90
50947;DHT22;36955;47.416;7.716;2022-12-07T11:45:42;3.00;99.90
50947;DHT22;36955;47.416;7.716;2022-12-07T11:50:57;2.70;99.90
50947;DHT22;36955;47.416;7.716;2022-12-07T11:53:28;2.60;99.90
50947;DHT22;36955;47.416;7.716;2022-12-07T11:55:57;2.60;99.90
50947;DHT22;36955;47.416;7.716;2022-12-07T11:58:41;2.60;99.90
50947;DHT22;36955;47.416;7.716;2022-12-07T12:06:30;2.60;99.90
50947;DHT22;36955;47.416;7.716;2022-12-07T12:09:05;2.60;99.90
50947;DHT22;36955;47.416;7.716;2022-12-07T12:17:16;2.80;99.90
50947;DHT22;36955;47.416;7.716;2022-12-07T12:22:44;2.70;99.90
50947;DHT22;36955;47.416;7.716;2022-12-07T12:25:28;2.60;99.90
50947;DHT22;36955;47.416;7.716;2022-12-07T12:28:00;2.70;99.90
50947;DHT22;36955;47.416;7.716;2022-12-07T12:30:38;2.70;99.90
50947;DHT22;36955;47.416;7.716;2022-12-07T12:33:29;2.70;99.90
50947;DHT22;36955;47.416;7.716;2022-12-07T12:39:09;2.60;99.90
50947;DHT22;36955;47.416;7.716;2022-12-07T12:44:03;2.50;99.90
50947;DHT22;36955;47.416;7.716;2022-12-07T12:46:59;2.50;99.90
50947;DHT22;36955;47.416;7.716;2022-12-07T12:52:01;2.40;99.90
50947;DHT22;36955;47.416;7.716;2022-12-07T12:55:13;2.40;99.90
50947;DHT22;36955;47.416;7.716;2022-12-07T12:57:40;2.40;99.90
50947;DHT22;36955;47.416;7.716;2022-12-07T13:00:23;2.40;99.90
50947;DHT22;36955;47.416;7.716;2022-12-07T13:02:53;2.60;99.90
50947;DHT22;36955;47.416;7.716;2022-12-07T13:05:20;2.60;99.90
50947;DHT22;36955;47.416;7.716;2022-12-07T13:15:35;2.70;99.90
50947;DHT22;36955;47.416;7.716;2022-12-07T13:18:04;2.70;99.90
50947;DHT22;36955;47.416;7.716;2022-12-07T13:26:19;2.60;99.90
50947;DHT22;36955;47.416;7.716;2022-12-07T13:28:47;2.70;99.90
50947;DHT22;36955;47.416;7.716;2022-12-07T13:31:15;2.70;99.90
50947;DHT22;36955;47.416;7.716;2022-12-07T13:33:44;2.70;99.90
50947;DHT22;36955;47.416;7.716;2022-12-07T13:36:25;2.80;99.90
50947;DHT22;36955;47.416;7.716;2022-12-07T13:38:56;2.80;99.90
50947;DHT22;36955;47.416;7.716;2022-12-07T13:41:25;2.90;99.90
50947;DHT22;36955;47.416;7.716;2022-12-07T13:44:01;3.00;99.90
50947;DHT22;36955;47.416;7.716;2022-12-07T13:47:07;3.00;99.90
50947;DHT22;36955;47.416;7.716;2022-12-07T13:49:53;3.10;99.90
50947;DHT22;36955;47.416;7.716;2022-12-07T13:52:24;3.10;99.90
50947;DHT22;36955;47.416;7.716;2022-12-07T13:57:24;3.00;99.90
50947;DHT22;36955;47.416;7.716;2022-12-07T13:59:52;3.00;99.90
50947;DHT22;36955;47.416;7.716;2022-12-07T14:02:20;3.00;99.90
50947;DHT22;36955;47.416;7.716;2022-12-07T14:04:49;3.00;99.90
50947;DHT22;36955;47.416;7.716;2022-12-07T14:07:25;3.00;99.90
50947;DHT22;36955;47.416;7.716;2022-12-07T14:10:00;2.90;99.90
50947;DHT22;36955;47.416;7.716;2022-12-07T14:12:28;2.80;99.90
50947;DHT22;36955;47.416;7.716;2022-12-07T14:14:55;2.60;99.90
50947;DHT22;36955;47.416;7.716;2022-12-07T14:17:24;2.50;99.90
50947;DHT22;36955;47.416;7.716;2022-12-07T14:19:53;2.50;99.90
50947;DHT22;36955;47.416;7.716;2022-12-07T14:24:49;2.50;99.90
50947;DHT22;36955;47.416;7.716;2022-12-07T14:27:21;2.40;99.90
50947;DHT22;36955;47.416;7.716;2022-12-07T14:29:48;2.40;99.90
50947;DHT22;36955;47.416;7.716;2022-12-07T14:32:28;2.40;99.90
50947;DHT22;36955;47.416;7.716;2022-12-07T14:35:02;2.40;99.90
50947;DHT22;36955;47.416;7.716;2022-12-07T14:37:30;2.40;99.90
50947;DHT22;36955;47.416;7.716;2022-12-07T14:39:56;2.30;99.90
50947;DHT22;36955;47.416;7.716;2022-12-07T14:42:26;2.30;99.90
50947;DHT22;36955;47.416;7.716;2022-12-07T14:44:53;2.30;99.90
50947;DHT22;36955;47.416;7.716;2022-12-07T14:47:19;2.30;99.90
50947;DHT22;36955;47.416;7.716;2022-12-07T14:49:45;2.30;99.90
50947;DHT22;36955;47.416;7.716;2022-12-07T14:52:21;2.30;99.90
50947;DHT22;36955;47.416;7.716;2022-12-07T14:54:48;2.30;99.90
50947;DHT22;36955;47.416;7.716;2022-12-07T14:57:15;2.20;99.90
50947;DHT22;36955;47.416;7.716;2022-12-07T14:59:41;2.20;99.90
50947;DHT22;36955;47.416;7.716;2022-12-07T15:02:10;2.30;99.90
50947;DHT22;36955;47.416;7.716;2022-12-07T15:04:36;2.20;99.90
50947;DHT22;36955;47.416;7.716;2022-12-07T15:07:04;2.30;99.90
50947;DHT22;36955;47.416;7.716;2022-12-07T15:09:31;2.30;99.90
50947;DHT22;36955;47.416;7.716;2022-12-07T15:11:57;2.30;99.90
50947;DHT22;36955;47.416;7.716;2022-12-07T15:14:23;2.10;99.90
50947;DHT22;36955;47.416;7.716;2022-12-07T15:16:49;2.00;99.90
50947;DHT22;36955;47.416;7.716;2022-12-07T15:19:18;1.90;99.90
50947;DHT22;36955;47.416;7.716;2022-12-07T15:21:45;1.90;99.90
50947;DHT22;36955;47.416;7.716;2022-12-07T15:24:12;1.80;99.90
50947;DHT22;36955;47.416;7.716;2022-12-07T15:26:39;1.70;99.90
50947;DHT22;36955;47.416;7.716;2022-12-07T15:29:06;1.50;99.90
50947;DHT22;36955;47.416;7.716;2022-12-07T15:31:32;1.50;99.90
50947;DHT22;36955;47.416;7.716;2022-12-07T15:33:59;1.40;99.90
50947;DHT22;36955;47.416;7.716;2022-12-07T15:36:27;1.30;99.90
50947;DHT22;36955;47.416;7.716;2022-12-07T15:38:54;1.20;99.90
50947;DHT22;36955;47.416;7.716;2022-12-07T15:41:21;1.00;99.90
50947;DHT22;36955;47.416;7.716;2022-12-07T15:43:47;0.90;99.90
50947;DHT22;36955;47.416;7.716;2022-12-07T15:46:13;0.80;99.90
50947;DHT22;36955;47.416;7.716;2022-12-07T15:48:39;0.70;99.90
50947;DHT22;36955;47.416;7.716;2022-12-07T15:51:08;0.70;99.90
50947;DHT22;36955;47.416;7.716;2022-12-07T15:53:36;0.60;99.90
50947;DHT22;36955;47.416;7.716;2022-12-07T15:56:05;0.50;99.90
50947;DHT22;36955;47.416;7.716;2022-12-07T15:58:32;0.50;99.90
50947;DHT22;36955;47.416;7.716;2022-12-07T16:00:58;0.40;99.90
50947;DHT22;36955;47.416;7.716;2022-12-07T16:03:24;0.40;99.90
50947;DHT22;36955;47.416;7.716;2022-12-07T16:05:51;0.30;99.90
50947;DHT22;36955;47.416;7.716;2022-12-07T16:08:17;0.30;99.90
50947;DHT22;36955;47.416;7.716;2022-12-07T16:10:44;0.30;99.90
50947;DHT22;36955;47.416;7.716;2022-12-07T16:13:13;0.30;99.90
50947;DHT22;36955;47.416;7.716;2022-12-07T16:15:40;0.30;99.90
50947;DHT22;36955;47.416;7.716;2022-12-07T16:18:06;0.30;99.90
50947;DHT22;36955;47.416;7.716;2022-12-07T16:20:32;0.30;99.90
50947;DHT22;36955;47.416;7.716;2022-12-07T16:22:59;0.40;99.90
50947;DHT22;36955;47.416;7.716;2022-12-07T16:25:25;0.40;99.90
50947;DHT22;36955;47.416;7.716;2022-12-07T16:27:52;0.40;99.90
50947;DHT22;36955;47.416;7.716;2022-12-07T16:30:18;0.40;99.90
50947;DHT22;36955;47.416;7.716;2022-12-07T16:32:45;0.50;99.90
50947;DHT22;36955;47.416;7.716;2022-12-07T16:35:11;0.50;99.90
50947;DHT22;36955;47.416;7.716;2022-12-07T16:37:38;0.50;99.90
50947;DHT22;36955;47.416;7.716;2022-12-07T16:40:05;0.60;99.90
50947;DHT22;36955;47.416;7.716;2022-12-07T16:42:33;0.60;99.90
50947;DHT22;36955;47.416;7.716;2022-12-07T16:45:00;0.70;99.90
50947;DHT22;36955;47.416;7.716;2022-12-07T16:47:27;0.80;99.90
50947;DHT22;36955;47.416;7.716;2022-12-07T16:49:53;0.80;99.90
50947;DHT22;36955;47.416;7.716;2022-12-07T16:52:19;0.80;99.90
50947;DHT22;36955;47.416;7.716;2022-12-07T16:54:46;0.80;99.90
50947;DHT22;36955;47.416;7.716;2022-12-07T16:57:12;0.80;99.90
50947;DHT22;36955;47.416;7.716;2022-12-07T16:59:38;0.80;99.90
50947;DHT22;36955;47.416;7.716;2022-12-07T17:02:05;0.80;99.90
50947;DHT22;36955;47.416;7.716;2022-12-07T17:04:32;0.80;99.90
50947;DHT22;36955;47.416;7.716;2022-12-07T17:06:59;0.80;99.90
50947;DHT22;36955;47.416;7.716;2022-12-07T17:09:25;0.70;99.90
50947;DHT22;36955;47.416;7.716;2022-12-07T17:11:51;0.70;99.90
50947;DHT22;36955;47.416;7.716;2022-12-07T17:14:17;0.60;99.90
50947;DHT22;36955;47.416;7.716;2022-12-07T17:16:43;0.60;99.90
50947;DHT22;36955;47.416;7.716;2022-12-07T17:19:12;0.60;99.90
50947;DHT22;36955;47.416;7.716;2022-12-07T17:21:38;0.60;99.90
50947;DHT22;36955;47.416;7.716;2022-12-07T17:24:06;0.60;99.90
50947;DHT22;36955;47.416;7.716;2022-12-07T17:26:33;0.60;99.90
50947;DHT22;36955;47.416;7.716;2022-12-07T17:28:59;0.60;99.90
50947;DHT22;36955;47.416;7.716;2022-12-07T17:31:26;0.60;99.90
50947;DHT22;36955;47.416;7.716;2022-12-07T17:33:52;0.60;99.90
50947;DHT22;36955;47.416;7.716;2022-12-07T17:36:21;0.60;99.90
50947;DHT22;36955;47.416;7.716;2022-12-07T17:38:48;0.60;99.90
50947;DHT22;36955;47.416;7.716;2022-12-07T17:41:25;0.60;99.90
50947;DHT22;36955;47.416;7.716;2022-12-07T17:43:51;0.40;99.90
50947;DHT22;36955;47.416;7.716;2022-12-07T17:46:17;0.40;99.90
50947;DHT22;36955;47.416;7.716;2022-12-07T17:48:43;0.40;99.90
50947;DHT22;36955;47.416;7.716;2022-12-07T17:51:09;0.40;99.90
50947;DHT22;36955;47.416;7.716;2022-12-07T17:53:35;0.30;99.90
50947;DHT22;36955;47.416;7.716;2022-12-07T17:56:02;0.30;99.90
50947;DHT22;36955;47.416;7.716;2022-12-07T17:58:28;0.30;99.90
50947;DHT22;36955;47.416;7.716;2022-12-07T18:00:54;0.20;99.90